Portada
METAR-TAF:

METAR-TAF

Aeroports :

Beirut, Líban

latitud: 33-49N, longitud: 035-29E, altitud: 29 m

Observació

L'informe es va fer fa 57 minuts, a les 16:00 UTC
Vent 9 kt del Oest/Sud-Oest
Temperatura 29°C
Humitat 62%
Pressió 1008 hPa
Visibilitat: 8000 m
Núvols disperses a una alçada de 2800 ft

METAR: OLBA 171600Z 24009KT 8000 SCT028 29/21 Q1008 NOSIG

Hora: 19:57 (16:57 UTC)

Pronòstic

L'informe es va fer fa 6 hores i 57 minuts, a les 10:00 UTC
Pronòstic vàlid del 17 a les 12 UTC al 18 a les 18 UTC
Vent 15 kt del Oest/Sud-Oest
Visibilitat: 8000 m
Núvols disperses a una alçada de 2700 ft
Evolucionant progressivament
l' 17 a les 20 UTC al 17 a les 22 UTC
Vent 5 kt del Sud-Est
Cel ennuvolat a una alçada de 2600 ft
Evolucionant progressivament
l' 18 a les 06 UTC al 18 a les 09 UTC
Vent 14 kt del Sud-Oest
Núvols disperses a una alçada de 2600 ft

TAF: OLBA 171000Z 1712/1818 24015KT 8000 SCT027 BECMG 1720/1722 14005KT BKN026 BECMG 1806/1809 23014KT SCT026

Observacions i pronòstics meteorològics de més de 4000 aeroports (METAR i TAF).

Les estacions disponibles són els punts grocs i vermells al mapa.

Posi el ratolí al punt desitjat per veure el nom de l'estació.

Feu clic per veure les observacions i els pronòstics meteorològics.

Per canviar el mapa: feu clic els botons verds amb una creu de color negre per apropar; al botó verd amb un guió per allunyar la imatge; o en les fletxes verdes per a mapes adjacents.


METAR-TAF: